Time;durP1;ratioP1;P1;durP2;ratioP2;P2;SDS_P1;SDS_P2;PMS_P1;PMS_P2;Temp;Humidity;BMP_temperature;BMP_pressure;BME280_temperature;BME280_humidity;BME280_pressure;Samples;Min_cycle;Max_cycle;Signal;HPM_P1;HPM_P2
2023/01/02 00:00:02;;;;;;;13.05;6.57;;;11.90;99.90;;;;;;5015959;28;20053;-84
2023/01/02 00:02:27;;;;;;;12.52;6.35;;;11.90;99.90;;;;;;5015840;28;20033;-83
2023/01/02 00:04:53;;;;;;;16.20;5.97;;;11.90;99.90;;;;;;5016073;28;20017;-83
2023/01/02 00:07:19;;;;;;;15.57;6.63;;;11.90;99.90;;;;;;5033537;28;20391;-84
2023/01/02 00:09:45;;;;;;;14.77;5.78;;;11.90;99.90;;;;;;5032001;28;20045;-83
2023/01/02 00:12:10;;;;;;;18.48;6.47;;;12.00;99.90;;;;;;5015670;28;20045;-83
2023/01/02 00:14:36;;;;;;;12.82;6.25;;;12.00;99.90;;;;;;5015967;28;20108;-83
2023/01/02 00:17:01;;;;;;;13.85;5.53;;;12.00;99.90;;;;;;5015708;28;20133;-83
2023/01/02 00:19:27;;;;;;;12.52;5.90;;;12.10;99.90;;;;;;5015673;28;20546;-83
2023/01/02 00:21:53;;;;;;;12.50;6.40;;;12.10;99.90;;;;;;5015753;28;20506;-83
2023/01/02 00:24:18;;;;;;;11.20;5.40;;;12.10;99.90;;;;;;5031944;28;20024;-83
2023/01/02 00:26:44;;;;;;;12.40;5.07;;;12.10;99.90;;;;;;5031505;28;20079;-83
2023/01/02 00:29:10;;;;;;;13.23;6.68;;;12.10;99.90;;;;;;5015509;28;20032;-83
2023/01/02 00:31:35;;;;;;;16.13;5.25;;;12.20;99.90;;;;;;5015564;28;20477;-83
2023/01/02 00:34:01;;;;;;;15.68;5.50;;;12.20;99.90;;;;;;5015546;28;20029;-83
2023/01/02 00:36:27;;;;;;;10.73;5.13;;;12.20;99.90;;;;;;5015795;28;20389;-83
2023/01/02 00:38:56;;;;;;;11.27;5.10;;;12.20;99.90;;;;;;5031894;28;20104;-76
2023/01/02 00:41:22;;;;;;;13.10;5.43;;;12.30;99.90;;;;;;5031826;28;20025;-76
2023/01/02 00:43:48;;;;;;;11.68;4.88;;;12.30;99.90;;;;;;5033326;28;20029;-76
2023/01/02 00:46:14;;;;;;;13.15;5.13;;;12.30;99.90;;;;;;5015268;28;20029;-76
2023/01/02 00:48:40;;;;;;;14.88;5.07;;;12.30;99.90;;;;;;5031986;28;20038;-76
2023/01/02 00:51:07;;;;;;;11.38;5.10;;;12.30;99.90;;;;;;5015285;28;20121;-76
2023/01/02 00:53:32;;;;;;;11.80;4.75;;;12.30;99.90;;;;;;5031746;28;20014;-77
2023/01/02 00:55:58;;;;;;;12.30;4.90;;;12.30;99.90;;;;;;5015100;28;20027;-77
2023/01/02 00:58:24;;;;;;;12.48;4.63;;;12.30;99.90;;;;;;5031672;28;20026;-77
2023/01/02 01:00:50;;;;;;;21.58;5.30;;;12.40;99.90;;;;;;5015208;28;20034;-77
2023/01/02 01:03:15;;;;;;;10.77;4.07;;;12.40;99.90;;;;;;5031449;28;20030;-77
2023/01/02 01:05:41;;;;;;;13.43;4.85;;;12.30;99.90;;;;;;5014881;28;20025;-77
2023/01/02 01:08:07;;;;;;;13.73;5.47;;;12.30;99.90;;;;;;5014881;28;20125;-76
2023/01/02 01:10:35;;;;;;;14.63;4.32;;;12.30;99.90;;;;;;5031758;28;20045;-77
2023/01/02 01:13:01;;;;;;;9.63;4.70;;;12.30;99.90;;;;;;5031660;28;20366;-77
2023/01/02 01:15:27;;;;;;;14.70;4.30;;;12.30;99.90;;;;;;5031547;28;20025;-77
2023/01/02 01:17:53;;;;;;;16.23;4.85;;;12.30;99.90;;;;;;5031348;28;20021;-77
2023/01/02 01:20:18;;;;;;;9.38;4.47;;;12.30;99.90;;;;;;5015226;28;20026;-76
2023/01/02 01:22:44;;;;;;;11.52;4.60;;;12.40;99.90;;;;;;5015035;28;20509;-76
2023/01/02 01:25:10;;;;;;;12.93;5.05;;;12.40;99.90;;;;;;5014958;28;20474;-76
2023/01/02 01:27:36;;;;;;;14.07;4.85;;;12.40;99.90;;;;;;5015091;28;20029;-84
2023/01/02 01:30:02;;;;;;;8.77;3.95;;;12.40;99.90;;;;;;5031370;28;20018;-84
2023/01/02 01:32:29;;;;;;;10.88;3.83;;;12.40;99.90;;;;;;5015006;28;20025;-84
2023/01/02 01:34:54;;;;;;;11.30;4.25;;;12.40;99.90;;;;;;5031216;28;20025;-83
2023/01/02 01:37:20;;;;;;;13.30;5.15;;;12.50;99.90;;;;;;5031566;28;20029;-84
2023/01/02 01:39:46;;;;;;;13.57;4.32;;;12.50;99.90;;;;;;5018466;28;20044;-83
2023/01/02 01:42:15;;;;;;;10.02;4.28;;;12.50;99.90;;;;;;5018641;28;20034;-84
2023/01/02 01:44:42;;;;;;;15.55;4.65;;;12.50;99.90;;;;;;5018449;28;20083;-84
2023/01/02 01:47:34;;;;;;;8.27;3.60;;;12.60;99.90;;;;;;5035017;28;20401;-84
2023/01/02 01:50:23;;;;;;;12.07;4.47;;;12.60;99.90;;;;;;5016789;28;20045;-84
2023/01/02 01:53:06;;;;;;;10.05;4.10;;;12.60;99.90;;;;;;5034814;28;20033;-85
2023/01/02 01:55:46;;;;;;;9.88;3.95;;;12.60;99.90;;;;;;5034741;28;20030;-85
2023/01/02 01:58:20;;;;;;;10.05;4.63;;;12.60;99.90;;;;;;5034795;28;20044;-84
2023/01/02 02:00:47;;;;;;;10.18;4.30;;;12.60;99.90;;;;;;5034876;28;20021;-84
2023/01/02 02:03:20;;;;;;;12.90;4.13;;;12.60;99.90;;;;;;5035074;28;20036;-84
2023/01/02 02:05:47;;;;;;;13.68;3.80;;;12.60;99.90;;;;;;5034766;28;20029;-85
2023/01/02 02:08:36;;;;;;;9.32;3.70;;;12.60;99.90;;;;;;5034557;28;20474;-84
2023/01/02 02:11:02;;;;;;;13.98;4.13;;;12.60;99.90;;;;;;5034572;28;20084;-84
2023/01/02 02:13:32;;;;;;;11.13;3.83;;;12.60;99.90;;;;;;5035749;28;20053;-84
2023/01/02 02:16:10;;;;;;;10.80;4.15;;;12.60;99.90;;;;;;5018427;28;20132;-84
2023/01/02 02:18:39;;;;;;;11.20;3.67;;;12.60;99.90;;;;;;5034653;28;20029;-83
2023/01/02 02:21:42;;;;;;;12.63;4.63;;;12.60;99.90;;;;;;5034467;28;20149;-83
2023/01/02 02:24:16;;;;;;;9.57;3.80;;;12.60;99.90;;;;;;5034573;28;20036;-83
2023/01/02 02:27:26;;;;;;;12.35;4.85;;;12.50;99.90;;;;;;5035926;28;20382;-83
2023/01/02 02:30:02;;;;;;;14.20;4.50;;;12.50;99.90;;;;;;5034412;28;20474;-83
2023/01/02 02:32:53;;;;;;;10.80;4.50;;;12.50;99.90;;;;;;5034529;28;20029;-83
2023/01/02 02:35:34;;;;;;;12.98;4.13;;;12.50;99.90;;;;;;5034236;28;20053;-84
2023/01/02 02:37:59;;;;;;;11.18;4.20;;;12.50;99.90;;;;;;5034333;28;20493;-83
2023/01/02 02:40:33;;;;;;;10.02;4.20;;;12.50;99.90;;;;;;5035564;28;20061;-84
2023/01/02 02:43:15;;;;;;;11.48;4.30;;;12.50;99.90;;;;;;5034197;28;20026;-84
2023/01/02 02:45:56;;;;;;;12.68;4.50;;;12.50;99.90;;;;;;5034114;28;20028;-83
2023/01/02 02:48:47;;;;;;;11.77;4.45;;;12.50;99.90;;;;;;5034273;28;20444;-82
2023/01/02 02:51:29;;;;;;;9.65;4.20;;;12.50;99.90;;;;;;5033523;28;20022;-84
2023/01/02 02:54:01;;;;;;;12.32;4.15;;;12.50;99.90;;;;;;5035225;28;20021;-83
2023/01/02 02:56:28;;;;;;;11.57;4.45;;;12.50;99.90;;;;;;5033980;28;20018;-84
2023/01/02 02:58:55;;;;;;;13.32;3.95;;;12.50;99.90;;;;;;5034306;28;20029;-84
2023/01/02 03:01:28;;;;;;;7.65;3.53;;;12.50;99.90;;;;;;5017417;28;20060;-83
2023/01/02 03:03:53;;;;;;;8.63;4.25;;;12.50;99.90;;;;;;5033872;28;20021;-83
2023/01/02 03:07:15;;;;;;;14.20;4.30;;;12.50;99.90;;;;;;5033870;28;20171;-83
2023/01/02 03:10:01;;;;;;;13.68;4.30;;;12.60;99.90;;;;;;4996727;28;20096;-83
2023/01/02 03:12:48;;;;;;;8.95;3.88;;;12.50;99.90;;;;;;5033566;28;20037;-82
2023/01/02 03:15:46;;;;;;;10.60;4.10;;;12.50;99.90;;;;;;5033624;28;20033;-83
2023/01/02 03:18:23;;;;;;;14.73;4.28;;;12.50;99.90;;;;;;5033950;28;20381;-84
2023/01/02 03:21:00;;;;;;;11.88;4.25;;;12.60;99.90;;;;;;5033419;28;20374;-84
2023/01/02 03:23:28;;;;;;;16.08;5.50;;;12.50;99.90;;;;;;5034869;28;20021;-83
2023/01/02 03:25:56;;;;;;;10.85;4.20;;;12.50;99.90;;;;;;5034696;28;20462;-83
2023/01/02 03:28:25;;;;;;;13.20;4.43;;;12.50;99.90;;;;;;5034620;28;20021;-83
2023/01/02 03:30:55;;;;;;;10.57;3.95;;;12.50;99.90;;;;;;5033510;28;20540;-83
2023/01/02 03:33:26;;;;;;;12.05;3.92;;;12.60;99.90;;;;;;5033505;28;20047;-84
2023/01/02 03:36:07;;;;;;;12.27;4.55;;;12.60;99.90;;;;;;5033345;28;20108;-84
2023/01/02 03:38:37;;;;;;;12.00;4.07;;;12.60;99.90;;;;;;5034510;28;20478;-83
2023/01/02 03:41:12;;;;;;;13.05;3.92;;;12.60;99.90;;;;;;5034478;28;20021;-83
2023/01/02 03:43:40;;;;;;;11.57;4.15;;;12.60;99.90;;;;;;5033127;28;20018;-84
2023/01/02 03:46:29;;;;;;;13.32;3.90;;;12.70;99.90;;;;;;5033208;28;20033;-84
2023/01/02 03:49:12;;;;;;;12.15;3.45;;;12.70;99.90;;;;;;5027443;28;20060;-84
2023/01/02 03:51:38;;;;;;;8.20;3.42;;;12.70;99.90;;;;;;5033029;28;20497;-83
2023/01/02 03:54:04;;;;;;;7.72;3.30;;;12.70;99.90;;;;;;5033343;28;20025;-84
2023/01/02 03:56:45;;;;;;;11.50;4.22;;;12.80;99.90;;;;;;5016706;28;20021;-84
2023/01/02 03:59:19;;;;;;;14.75;4.78;;;12.80;99.90;;;;;;5033059;28;20457;-83
2023/01/02 04:01:53;;;;;;;10.63;3.55;;;12.80;99.90;;;;;;5033094;28;20025;-84
2023/01/02 04:05:04;;;;;;;9.25;3.10;;;12.80;99.90;;;;;;5034267;28;20128;-83
2023/01/02 04:07:38;;;;;;;9.55;3.85;;;12.80;99.90;;;;;;5023523;28;20045;-84
2023/01/02 04:10:07;;;;;;;12.50;2.88;;;12.80;99.90;;;;;;5035704;28;20494;-84
2023/01/02 04:12:35;;;;;;;11.70;3.95;;;12.90;99.90;;;;;;5034502;28;20466;-84
2023/01/02 04:15:06;;;;;;;11.27;3.78;;;12.90;99.90;;;;;;5032677;28;20025;-84
2023/01/02 04:17:39;;;;;;;12.68;3.40;;;12.90;99.90;;;;;;5032542;28;20022;-83
2023/01/02 04:20:09;;;;;;;11.25;3.42;;;12.90;99.90;;;;;;5032653;28;20029;-82
2023/01/02 04:22:50;;;;;;;13.95;3.63;;;12.90;99.90;;;;;;5032428;28;20036;-85
2023/01/02 04:25:17;;;;;;;10.75;3.05;;;12.90;99.90;;;;;;5032644;28;20179;-85
2023/01/02 04:27:49;;;;;;;10.45;4.38;;;12.90;99.90;;;;;;5032325;28;20021;-83
2023/01/02 04:30:15;;;;;;;10.15;3.45;;;12.90;99.90;;;;;;5032452;28;20021;-84
2023/01/02 04:32:43;;;;;;;12.95;3.78;;;12.90;99.90;;;;;;5033707;28;20035;-85
2023/01/02 04:35:13;;;;;;;13.25;3.63;;;12.90;99.90;;;;;;5015969;28;20022;-84
2023/01/02 04:37:41;;;;;;;9.77;3.22;;;12.90;99.90;;;;;;5033776;28;20028;-84
2023/01/02 04:40:24;;;;;;;12.57;3.72;;;12.90;99.90;;;;;;5032318;28;20120;-84
2023/01/02 04:42:50;;;;;;;9.98;3.03;;;12.90;99.90;;;;;;5032290;28;20142;-84
2023/01/02 04:45:16;;;;;;;13.95;3.10;;;12.90;99.90;;;;;;5016058;28;20493;-84
2023/01/02 04:47:42;;;;;;;9.25;2.67;;;12.90;99.90;;;;;;5032295;28;20030;-83
2023/01/02 04:50:08;;;;;;;8.77;3.38;;;12.90;99.90;;;;;;5016032;28;20029;-83
2023/01/02 04:52:34;;;;;;;7.50;2.65;;;12.90;99.90;;;;;;5034221;28;20032;-85
2023/01/02 04:55:00;;;;;;;8.70;3.17;;;12.90;99.90;;;;;;5016086;28;20025;-85
2023/01/02 04:57:25;;;;;;;11.13;2.97;;;12.90;99.90;;;;;;5015685;28;20469;-77
2023/01/02 04:59:51;;;;;;;9.02;2.83;;;12.90;99.90;;;;;;5032087;28;20385;-77
2023/01/02 05:02:17;;;;;;;9.43;3.33;;;12.90;99.90;;;;;;5015294;28;20374;-77
2023/01/02 05:04:42;;;;;;;10.73;2.95;;;12.90;99.90;;;;;;5015078;28;20037;-78
2023/01/02 05:07:08;;;;;;;11.75;3.30;;;12.90;99.90;;;;;;5015356;28;20033;-77
2023/01/02 05:09:34;;;;;;;8.18;3.38;;;12.90;99.90;;;;;;5031171;28;20084;-77
2023/01/02 05:11:59;;;;;;;10.07;3.10;;;12.90;99.90;;;;;;5015193;28;20470;-77
2023/01/02 05:14:25;;;;;;;9.10;2.70;;;12.80;99.90;;;;;;5018451;28;20524;-77
2023/01/02 05:16:51;;;;;;;10.95;3.33;;;12.90;99.90;;;;;;5035414;28;20026;-77
2023/01/02 05:19:16;;;;;;;10.18;2.92;;;12.90;99.90;;;;;;5018901;28;20061;-77
2023/01/02 05:24:26;;;;;;;8.68;3.13;;;12.90;99.90;;;;;;5035898;28;20563;-76
2023/01/02 05:26:53;;;;;;;8.23;2.83;;;12.90;99.90;;;;;;5035257;28;20033;-77
2023/01/02 05:29:19;;;;;;;8.68;2.90;;;12.90;99.90;;;;;;5018533;28;20059;-77
2023/01/02 05:31:44;;;;;;;8.50;3.28;;;12.90;99.90;;;;;;5035404;28;20035;-77
2023/01/02 05:34:13;;;;;;;11.65;3.13;;;12.90;99.90;;;;;;5018866;28;20458;-77
2023/01/02 05:36:39;;;;;;;9.70;3.22;;;12.90;99.90;;;;;;5034884;28;20186;-76
2023/01/02 05:39:12;;;;;;;7.03;2.72;;;12.90;99.90;;;;;;5018581;28;20557;-77
2023/01/02 05:41:39;;;;;;;10.80;2.95;;;12.90;99.90;;;;;;5035066;28;20038;-77
2023/01/02 05:44:07;;;;;;;6.80;2.50;;;12.90;99.90;;;;;;5034856;28;20470;-76
2023/01/02 05:46:34;;;;;;;11.57;3.13;;;13.00;99.90;;;;;;5035260;28;20040;-78
2023/01/02 05:49:02;;;;;;;9.82;2.88;;;13.00;99.90;;;;;;5018191;28;20041;-80
2023/01/02 05:51:28;;;;;;;9.20;2.63;;;13.00;99.90;;;;;;5034825;28;20026;-80
2023/01/02 05:53:54;;;;;;;9.43;2.72;;;13.00;99.90;;;;;;5018115;28;20091;-80
2023/01/02 05:56:20;;;;;;;8.52;3.28;;;13.00;99.90;;;;;;5034668;28;20025;-80
2023/01/02 05:58:47;;;;;;;9.27;2.67;;;13.00;99.90;;;;;;5034838;28;20038;-81
2023/01/02 06:01:17;;;;;;;10.15;2.72;;;13.00;99.90;;;;;;5034927;28;20029;-84
2023/01/02 06:03:47;;;;;;;6.78;2.83;;;13.00;99.90;;;;;;5034962;28;20037;-83
2023/01/02 06:06:14;;;;;;;8.88;3.13;;;13.00;99.90;;;;;;5018329;28;20044;-84
2023/01/02 06:08:40;;;;;;;12.35;3.20;;;13.00;99.90;;;;;;5017044;28;20060;-85
2023/01/02 06:11:06;;;;;;;9.85;2.60;;;13.00;99.90;;;;;;5016444;28;20026;-84
2023/01/02 06:13:33;;;;;;;8.82;2.78;;;13.00;99.90;;;;;;5021734;28;20025;-86
2023/01/02 06:16:00;;;;;;;8.63;3.35;;;13.00;99.90;;;;;;5017583;28;20029;-83
2023/01/02 06:18:26;;;;;;;10.77;2.85;;;13.00;99.90;;;;;;5016236;28;20029;-84
2023/01/02 06:21:04;;;;;;;11.20;2.80;;;13.00;99.90;;;;;;5030398;28;20470;-82
2023/01/02 06:23:30;;;;;;;11.85;3.15;;;13.00;99.90;;;;;;5029606;28;20030;-86
2023/01/02 06:26:05;;;;;;;13.68;3.58;;;13.00;99.90;;;;;;5029957;28;20041;-86
2023/01/02 06:28:31;;;;;;;9.13;3.35;;;13.00;99.90;;;;;;5031240;28;20033;-85
2023/01/02 06:31:01;;;;;;;10.32;3.40;;;13.00;99.90;;;;;;5015227;28;20030;-87
2023/01/02 06:33:28;;;;;;;8.23;3.38;;;13.00;99.90;;;;;;5031127;28;20022;-86
2023/01/02 06:36:03;;;;;;;9.13;2.85;;;12.90;99.90;;;;;;5031303;28;20449;-87
2023/01/02 06:38:29;;;;;;;13.73;3.97;;;12.90;99.90;;;;;;5015667;28;20038;-85
2023/01/02 06:40:57;;;;;;;11.52;3.83;;;12.80;99.90;;;;;;5031034;28;20033;-84
2023/01/02 06:43:23;;;;;;;13.15;4.18;;;12.70;99.90;;;;;;4998346;28;20346;-85
2023/01/02 06:45:49;;;;;;;6.35;2.50;;;12.60;99.90;;;;;;5038664;28;20037;-78
2023/01/02 06:48:15;;;;;;;2.92;1.20;;;12.40;99.90;;;;;;5047624;28;20029;-78
2023/01/02 06:50:42;;;;;;;2.60;0.50;;;12.10;99.90;;;;;;5015234;28;20025;-79
2023/01/02 06:53:08;;;;;;;1.60;0.60;;;11.80;99.90;;;;;;5031492;28;20030;-78
2023/01/02 06:55:34;;;;;;;1.00;0.40;;;11.60;99.90;;;;;;5032762;28;20025;-78
2023/01/02 06:57:59;;;;;;;0.70;0.30;;;11.40;99.90;;;;;;5014965;28;20579;-78
2023/01/02 07:00:28;;;;;;;0.60;0.30;;;11.20;99.90;;;;;;5016119;28;20436;-79
2023/01/02 07:02:54;;;;;;;1.13;0.30;;;11.10;99.90;;;;;;5015443;28;20353;-78
2023/01/02 07:05:19;;;;;;;0.60;0.30;;;11.00;99.90;;;;;;5032698;28;20040;-78
2023/01/02 07:07:45;;;;;;;2.60;0.40;;;10.90;99.90;;;;;;5016744;28;20030;-78
2023/01/02 07:10:10;;;;;;;0.70;0.23;;;10.80;99.90;;;;;;5033246;28;20041;-78
2023/01/02 07:12:37;;;;;;;0.90;0.40;;;10.70;99.90;;;;;;5032814;28;20037;-78
2023/01/02 07:15:04;;;;;;;2.10;0.30;;;10.70;99.90;;;;;;5033114;28;20030;-79
2023/01/02 07:17:31;;;;;;;2.50;0.57;;;10.60;99.90;;;;;;5033422;28;20037;-78
2023/01/02 07:19:57;;;;;;;2.10;0.50;;;10.60;99.90;;;;;;5033114;28;20125;-79
2023/01/02 07:22:22;;;;;;;2.40;0.73;;;10.50;99.90;;;;;;5016582;28;20061;-79
2023/01/02 07:24:48;;;;;;;3.03;0.90;;;10.50;99.90;;;;;;5016587;28;20198;-78
2023/01/02 07:27:14;;;;;;;3.10;1.47;;;10.50;99.90;;;;;;5016648;28;20025;-79
2023/01/02 07:29:39;;;;;;;3.57;1.90;;;10.40;99.90;;;;;;5033083;28;20060;-79
2023/01/02 07:32:05;;;;;;;4.93;2.50;;;10.40;99.90;;;;;;5016376;28;20026;-79
2023/01/02 07:34:30;;;;;;;4.87;2.07;;;10.40;99.90;;;;;;5034179;28;20021;-77
2023/01/02 07:36:56;;;;;;;4.70;2.70;;;10.30;99.90;;;;;;5016255;28;20079;-78
2023/01/02 07:39:22;;;;;;;5.60;2.30;;;10.30;99.90;;;;;;5016315;28;20037;-77
2023/01/02 07:41:48;;;;;;;5.43;2.70;;;10.30;99.90;;;;;;5015851;28;20037;-78
2023/01/02 07:44:14;;;;;;;4.90;2.77;;;10.30;99.90;;;;;;5032702;28;20101;-78
2023/01/02 07:46:40;;;;;;;6.17;3.33;;;10.30;99.90;;;;;;5032856;28;20378;-79
2023/01/02 07:49:05;;;;;;;7.63;4.77;;;10.30;99.90;;;;;;5032231;28;20029;-78
2023/01/02 07:51:32;;;;;;;9.00;4.67;;;10.30;99.90;;;;;;5032264;28;20109;-79
2023/01/02 07:53:58;;;;;;;9.60;5.43;;;10.30;99.90;;;;;;5032194;28;20033;-79
2023/01/02 07:56:25;;;;;;;9.93;5.93;;;10.30;99.90;;;;;;5016076;28;20040;-79
2023/01/02 07:58:51;;;;;;;11.50;5.53;;;10.30;99.90;;;;;;5034227;28;20021;-79
2023/01/02 08:01:17;;;;;;;10.20;6.43;;;10.30;99.90;;;;;;5032344;28;20025;-79
2023/01/02 08:03:42;;;;;;;10.03;5.87;;;10.30;99.90;;;;;;5031088;28;20033;-79
2023/01/02 08:06:11;;;;;;;10.60;6.10;;;10.30;99.90;;;;;;5032244;28;20041;-79
2023/01/02 08:08:37;;;;;;;11.53;6.30;;;10.30;99.90;;;;;;5031388;28;20022;-79
2023/01/02 08:11:15;;;;;;;14.47;7.90;;;10.30;99.90;;;;;;5047042;28;20098;-84
2023/01/02 08:13:41;;;;;;;12.87;7.87;;;10.30;99.90;;;;;;5032769;28;20502;-84
2023/01/02 08:16:12;;;;;;;15.23;8.90;;;10.30;99.90;;;;;;5032179;28;20485;-85
2023/01/02 08:18:38;;;;;;;21.50;12.73;;;10.20;99.90;;;;;;5032602;28;20056;-84
2023/01/02 08:21:05;;;;;;;20.70;12.30;;;10.30;99.90;;;;;;5032307;28;20445;-85
2023/01/02 08:23:31;;;;;;;20.93;13.33;;;10.30;99.90;;;;;;5033023;28;20057;-85
2023/01/02 08:26:01;;;;;;;20.60;13.37;;;10.30;99.90;;;;;;5032620;28;20028;-84
2023/01/02 08:28:27;;;;;;;23.80;15.27;;;10.30;99.90;;;;;;5015912;28;20022;-84
2023/01/02 08:30:53;;;;;;;27.20;17.23;;;10.20;99.90;;;;;;5016221;28;20029;-84
2023/01/02 08:33:19;;;;;;;23.80;15.33;;;10.20;99.90;;;;;;5017220;28;20033;-85
2023/01/02 08:35:44;;;;;;;26.47;17.47;;;10.30;99.90;;;;;;5016793;28;20030;-84
2023/01/02 08:38:10;;;;;;;24.47;17.60;;;10.30;99.90;;;;;;5016013;28;20025;-84
2023/01/02 08:40:36;;;;;;;26.60;18.60;;;10.30;99.90;;;;;;5016785;28;20120;-84
2023/01/02 08:43:02;;;;;;;29.00;18.03;;;10.30;99.90;;;;;;5034729;28;20559;-84
2023/01/02 08:45:27;;;;;;;27.10;18.97;;;10.30;99.90;;;;;;5035477;28;20516;-84
2023/01/02 08:47:53;;;;;;;27.67;18.73;;;10.30;99.90;;;;;;5036720;28;20117;-84
2023/01/02 08:50:20;;;;;;;31.03;20.13;;;10.30;99.90;;;;;;5021311;28;20013;-85
2023/01/02 08:52:46;;;;;;;27.13;19.13;;;10.30;99.90;;;;;;5020520;28;20040;-84
2023/01/02 08:55:12;;;;;;;27.63;17.17;;;10.30;99.90;;;;;;5020395;28;20472;-83
2023/01/02 08:57:38;;;;;;;16.50;10.27;;;10.20;99.90;;;;;;5037834;28;20520;-84
2023/01/02 09:00:04;;;;;;;14.27;8.00;;;10.20;99.90;;;;;;5036181;28;20022;-84
2023/01/02 09:02:31;;;;;;;13.17;7.83;;;10.10;99.90;;;;;;5037631;28;20469;-83
2023/01/02 09:04:57;;;;;;;13.40;7.67;;;10.10;99.90;;;;;;5036135;28;20072;-83
2023/01/02 09:07:23;;;;;;;14.13;7.73;;;10.00;99.90;;;;;;5036298;28;20009;-83
2023/01/02 09:09:49;;;;;;;14.10;7.50;;;10.00;99.90;;;;;;5019680;28;20103;-82
2023/01/02 09:12:15;;;;;;;11.00;6.17;;;10.00;99.90;;;;;;5020687;28;20048;-83
2023/01/02 09:14:41;;;;;;;14.50;6.67;;;9.90;99.90;;;;;;5019772;28;20474;-82
2023/01/02 09:17:06;;;;;;;13.80;7.43;;;9.90;99.90;;;;;;5020132;28;20485;-84
2023/01/02 09:19:32;;;;;;;13.07;6.80;;;9.90;99.90;;;;;;5019824;28;20026;-84
2023/01/02 09:22:00;;;;;;;12.93;6.80;;;10.00;99.90;;;;;;5036819;28;20026;-84
2023/01/02 09:24:26;;;;;;;13.20;6.87;;;9.90;99.90;;;;;;5035931;28;20080;-84
2023/01/02 09:26:52;;;;;;;13.83;7.13;;;9.90;99.90;;;;;;5034544;28;20109;-84
2023/01/02 09:29:18;;;;;;;13.90;7.13;;;9.90;99.90;;;;;;5019363;28;20124;-80
2023/01/02 09:31:45;;;;;;;18.30;8.60;;;9.90;99.90;;;;;;5018852;28;20029;-80
2023/01/02 09:34:11;;;;;;;16.37;9.43;;;9.90;99.90;;;;;;5035075;28;20051;-80
2023/01/02 09:36:37;;;;;;;15.83;9.57;;;9.90;99.90;;;;;;5036417;28;20071;-79
2023/01/02 09:39:03;;;;;;;13.80;9.27;;;9.90;99.90;;;;;;5035358;28;20347;-79
2023/01/02 09:41:32;;;;;;;14.10;8.33;;;9.90;99.90;;;;;;5034919;28;20176;-78
2023/01/02 09:44:10;;;;;;;13.57;8.57;;;9.90;99.90;;;;;;5035030;28;20082;-80
2023/01/02 09:46:42;;;;;;;10.10;6.47;;;9.90;99.90;;;;;;5036189;28;20026;-80
2023/01/02 09:49:12;;;;;;;10.67;6.00;;;9.90;99.90;;;;;;5035032;28;20094;-79
2023/01/02 09:51:38;;;;;;;9.13;4.50;;;9.90;99.90;;;;;;5034939;28;20049;-80
2023/01/02 09:54:12;;;;;;;8.47;4.23;;;9.90;99.90;;;;;;5018312;28;20544;-80
2023/01/02 09:56:42;;;;;;;7.23;3.40;;;9.90;99.90;;;;;;5035049;28;20056;-79
2023/01/02 09:59:26;;;;;;;8.20;3.77;;;9.90;99.90;;;;;;5034611;28;20029;-80
2023/01/02 10:01:58;;;;;;;7.70;2.53;;;9.90;99.90;;;;;;5035953;28;20028;-81
2023/01/02 10:05:09;;;;;;;7.27;2.27;;;9.90;99.90;;;;;;5034630;28;20029;-81
2023/01/02 10:07:49;;;;;;;5.80;2.13;;;9.90;99.90;;;;;;5024474;28;20037;-80
2023/01/02 10:10:38;;;;;;;7.40;2.53;;;9.90;99.90;;;;;;5034232;28;20060;-79
2023/01/02 10:13:13;;;;;;;7.03;1.90;;;9.90;99.90;;;;;;5033916;28;20030;-81
2023/01/02 10:15:44;;;;;;;5.70;2.10;;;9.80;99.90;;;;;;5034758;28;20033;-81
2023/01/02 10:18:25;;;;;;;4.10;1.40;;;9.80;99.90;;;;;;5034463;28;20021;-81
2023/01/02 10:21:06;;;;;;;7.57;1.60;;;9.80;99.90;;;;;;5034304;28;20033;-80
2023/01/02 10:23:43;;;;;;;3.80;1.47;;;9.80;99.90;;;;;;5034361;28;20013;-80
2023/01/02 10:26:17;;;;;;;8.03;1.73;;;9.80;99.90;;;;;;5034257;28;20025;-80
2023/01/02 10:28:49;;;;;;;8.43;1.25;;;9.90;99.90;;;;;;5033721;28;20061;-80
2023/01/02 10:31:30;;;;;;;5.70;1.20;;;9.90;99.90;;;;;;5033176;28;20120;-80
2023/01/02 10:34:05;;;;;;;4.17;1.60;;;9.90;99.90;;;;;;5033610;28;20041;-80
2023/01/02 10:36:35;;;;;;;7.73;1.30;;;9.90;99.90;;;;;;5034001;28;20072;-80
2023/01/02 10:39:13;;;;;;;4.37;1.33;;;10.00;99.90;;;;;;5033752;28;20094;-81
2023/01/02 10:41:42;;;;;;;6.03;1.80;;;10.00;99.90;;;;;;5033728;28;20120;-80
2023/01/02 10:44:24;;;;;;;6.23;2.20;;;10.00;99.90;;;;;;5016594;28;20451;-80
2023/01/02 10:46:50;;;;;;;6.87;2.57;;;10.00;99.90;;;;;;5031792;28;20025;-81
2023/01/02 10:49:17;;;;;;;5.77;1.93;;;10.10;99.90;;;;;;5033485;28;20025;-80
2023/01/02 10:52:02;;;;;;;9.03;2.83;;;10.20;99.90;;;;;;5033658;28;20030;-81
2023/01/02 10:54:28;;;;;;;8.03;2.60;;;10.20;99.90;;;;;;5033773;28;20013;-81
2023/01/02 10:56:54;;;;;;;7.93;2.50;;;10.30;99.90;;;;;;5033746;28;20429;-80
2023/01/02 10:59:26;;;;;;;6.87;2.50;;;10.20;99.90;;;;;;5033519;28;20029;-83
2023/01/02 11:01:54;;;;;;;7.03;2.13;;;10.30;99.90;;;;;;5033758;28;20025;-83
2023/01/02 11:04:27;;;;;;;7.17;1.83;;;10.30;99.90;;;;;;5034612;28;20025;-82
2023/01/02 11:07:22;;;;;;;7.50;2.10;;;10.30;99.90;;;;;;5033304;28;20381;-83
2023/01/02 11:09:52;;;;;;;;;;;10.30;99.90;;;;;;5033368;28;20128;-83
2023/01/02 11:12:18;;;;;;;4.73;1.93;;;10.30;99.90;;;;;;5032453;28;19905;-83
2023/01/02 11:14:44;;;;;;;7.50;2.40;;;10.30;99.90;;;;;;5033281;28;20054;-83
2023/01/02 11:17:13;;;;;;;5.07;2.20;;;10.30;99.90;;;;;;5033000;28;20481;-83
2023/01/02 11:19:45;;;;;;;6.63;1.80;;;10.40;99.90;;;;;;5033051;28;20028;-83
2023/01/02 11:22:13;;;;;;;7.67;2.20;;;10.40;99.90;;;;;;5046728;28;20013;-83
2023/01/02 11:25:10;;;;;;;5.93;1.60;;;10.50;99.90;;;;;;5032871;28;20044;-83
2023/01/02 11:27:41;;;;;;;7.37;1.47;;;10.50;99.90;;;;;;5032707;28;20132;-83
2023/01/02 11:30:22;;;;;;;6.33;1.77;;;10.50;99.90;;;;;;5030691;28;20022;-84
2023/01/02 11:33:18;;;;;;;6.80;1.38;;;10.60;99.90;;;;;;5033302;28;20083;-82
2023/01/02 11:36:05;;;;;;;6.57;1.33;;;10.60;99.90;;;;;;5016262;28;20025;-82
2023/01/02 11:38:43;;;;;;;5.23;1.37;;;10.60;99.90;;;;;;5032707;28;20421;-82
2023/01/02 11:44:28;;;;;;;6.35;1.17;;;10.60;99.90;;;;;;5034680;28;20053;-82
2023/01/02 11:46:54;;;;;;;8.95;1.73;;;10.60;99.90;;;;;;5032562;28;20041;-82
2023/01/02 11:49:27;;;;;;;8.00;1.63;;;10.60;99.90;;;;;;5016221;28;20044;-82
2023/01/02 11:51:56;;;;;;;6.80;1.60;;;10.60;99.90;;;;;;5033163;28;20067;-84
2023/01/02 11:54:29;;;;;;;10.57;1.77;;;10.60;99.90;;;;;;5032555;28;20025;-83
2023/01/02 11:56:59;;;;;;;9.17;2.17;;;10.50;99.90;;;;;;5032813;28;20064;-83
2023/01/02 11:59:34;;;;;;;4.83;2.03;;;10.60;99.90;;;;;;5033040;28;20104;-83
2023/01/02 12:02:10;;;;;;;7.57;2.63;;;10.60;99.90;;;;;;5031709;28;20017;-80
2023/01/02 12:04:35;;;;;;;8.47;2.60;;;10.60;99.90;;;;;;5033634;28;20025;-80
2023/01/02 12:07:36;;;;;;;6.67;2.60;;;10.70;99.90;;;;;;5033731;28;20030;-81
2023/01/02 12:10:20;;;;;;;6.83;2.37;;;10.70;99.90;;;;;;5031161;28;20064;-80
2023/01/02 12:13:21;;;;;;;5.90;2.50;;;10.70;99.90;;;;;;5045359;28;20025;-81
2023/01/02 12:16:00;;;;;;;8.40;3.42;;;10.70;99.90;;;;;;5035511;28;20033;-81
2023/01/02 12:19:22;;;;;;;9.27;3.07;;;10.70;99.90;;;;;;5032188;28;20025;-81
2023/01/02 12:22:00;;;;;;;7.50;2.70;;;10.70;99.90;;;;;;5031138;28;20450;-81
2023/01/02 12:24:41;;;;;;;6.90;2.75;;;10.70;99.90;;;;;;5031771;28;20025;-80
2023/01/02 12:27:17;;;;;;;6.40;2.63;;;10.70;99.90;;;;;;5031844;28;20512;-82
2023/01/02 12:29:43;;;;;;;10.15;3.15;;;10.70;99.90;;;;;;5031964;28;20111;-81
2023/01/02 12:32:34;;;;;;;7.88;3.10;;;10.70;99.90;;;;;;5033197;28;20026;-81
2023/01/02 12:35:12;;;;;;;6.57;2.70;;;10.70;99.90;;;;;;5031845;28;20397;-80
2023/01/02 12:37:46;;;;;;;10.43;3.23;;;10.60;99.90;;;;;;5031944;28;20124;-80
2023/01/02 12:40:30;;;;;;;5.00;2.97;;;10.60;99.90;;;;;;5032088;28;20059;-80
2023/01/02 12:43:41;;;;;;;4.95;2.80;;;10.60;99.90;;;;;;5031993;28;20029;-80
2023/01/02 12:47:03;;;;;;;16.00;3.38;;;10.70;99.90;;;;;;5018889;28;20037;-80
2023/01/02 12:50:00;;;;;;;8.30;2.40;;;10.60;99.90;;;;;;5030798;28;20084;-80
2023/01/02 12:52:56;;;;;;;8.67;2.23;;;10.60;99.90;;;;;;5014315;28;20429;-80
2023/01/02 12:55:52;;;;;;;8.52;2.75;;;10.70;99.90;;;;;;5033008;28;20038;-79
2023/01/02 12:58:43;;;;;;;6.67;2.63;;;10.60;99.90;;;;;;5031760;28;20033;-79
2023/01/02 13:01:29;;;;;;;7.87;3.10;;;10.60;99.90;;;;;;5031785;28;20442;-82
2023/01/02 13:04:04;;;;;;;8.93;3.17;;;10.70;99.90;;;;;;5031886;28;20029;-80
2023/01/02 13:06:51;;;;;;;11.20;3.10;;;10.60;99.90;;;;;;5031669;28;20025;-80
2023/01/02 13:09:29;;;;;;;9.47;3.37;;;10.60;99.90;;;;;;5031475;28;20053;-80
2023/01/02 13:12:14;;;;;;;9.00;3.47;;;10.60;99.90;;;;;;5031668;28;20025;-80